Time;durP1;ratioP1;P1;durP2;ratioP2;P2;SDS_P1;SDS_P2;PMS_P1;PMS_P2;Temp;Humidity;BMP_temperature;BMP_pressure;BME280_temperature;BME280_humidity;BME280_pressure;Samples;Min_cycle;Max_cycle;Signal;HPM_P1;HPM_P2
2022/07/17 00:02:12;;;;;;;6.93;2.40;;;13.20;99.90;;;;;;6245192;28;20057;-65
2022/07/17 00:05:14;;;;;;;9.00;3.10;;;13.20;99.90;;;;;;6224614;28;20513;-64
2022/07/17 00:08:16;;;;;;;6.88;3.08;;;13.10;99.90;;;;;;6252398;28;20528;-64
2022/07/17 00:11:18;;;;;;;7.68;3.30;;;13.00;99.90;;;;;;6223032;28;20045;-64
2022/07/17 00:14:20;;;;;;;7.40;2.42;;;12.90;99.90;;;;;;6222785;28;20410;-64
2022/07/17 00:17:23;;;;;;;6.47;2.40;;;12.90;99.90;;;;;;6222771;28;20042;-64
2022/07/17 00:20:26;;;;;;;8.68;3.00;;;12.90;99.90;;;;;;6222658;28;20173;-64
2022/07/17 00:23:28;;;;;;;7.60;2.70;;;12.90;99.90;;;;;;6230306;28;20057;-65
2022/07/17 00:26:30;;;;;;;7.05;2.15;;;12.90;99.90;;;;;;6247443;28;20467;-65
2022/07/17 00:29:32;;;;;;;7.50;2.40;;;12.90;99.90;;;;;;6246045;28;20052;-65
2022/07/17 00:32:36;;;;;;;9.57;2.28;;;12.90;99.90;;;;;;6245478;28;20411;-65
2022/07/17 00:35:38;;;;;;;8.10;2.13;;;13.00;99.90;;;;;;6231654;28;20088;-65
2022/07/17 00:38:39;;;;;;;5.85;1.80;;;13.00;99.90;;;;;;6236552;28;20052;-65
2022/07/17 00:41:43;;;;;;;6.38;1.65;;;13.00;99.90;;;;;;6245750;28;20050;-65
2022/07/17 00:44:46;;;;;;;6.43;1.60;;;13.00;99.90;;;;;;6254129;28;20053;-65
2022/07/17 00:47:55;;;;;;;4.28;1.58;;;13.00;99.90;;;;;;6253903;28;20052;-65
2022/07/17 00:50:57;;;;;;;6.75;1.90;;;12.90;99.90;;;;;;6229956;28;20122;-65
2022/07/17 00:53:59;;;;;;;5.03;1.65;;;13.00;99.90;;;;;;6230638;28;20045;-65
2022/07/17 00:57:02;;;;;;;7.40;1.77;;;13.00;99.90;;;;;;6230369;28;20065;-65
2022/07/17 01:00:09;;;;;;;5.25;1.70;;;12.90;99.90;;;;;;6245821;28;20395;-65
2022/07/17 01:03:12;;;;;;;5.82;1.90;;;13.00;99.90;;;;;;6245250;28;20057;-65
2022/07/17 01:06:14;;;;;;;8.23;2.17;;;12.90;99.90;;;;;;6241353;28;20053;-65
2022/07/17 01:09:16;;;;;;;7.07;1.77;;;12.90;99.90;;;;;;6254836;28;20049;-65
2022/07/17 01:12:18;;;;;;;6.95;1.90;;;12.90;99.90;;;;;;6253737;28;20504;-65
2022/07/17 01:15:20;;;;;;;7.38;2.28;;;12.90;99.90;;;;;;6253531;28;20053;-65
2022/07/17 01:18:24;;;;;;;8.20;2.47;;;12.80;99.90;;;;;;6253475;28;20057;-65
2022/07/17 01:21:39;;;;;;;9.48;3.53;;;12.80;99.90;;;;;;6251394;28;20045;-65
2022/07/17 01:24:41;;;;;;;8.63;3.40;;;12.80;99.90;;;;;;6229503;28;20064;-65
2022/07/17 01:27:43;;;;;;;10.15;3.40;;;12.80;99.90;;;;;;6229075;28;20050;-65
2022/07/17 01:30:50;;;;;;;7.35;2.97;;;12.80;99.90;;;;;;6244508;28;20065;-65
2022/07/17 01:33:52;;;;;;;8.35;3.60;;;12.70;99.90;;;;;;6245045;28;20057;-65
2022/07/17 01:36:55;;;;;;;10.35;4.57;;;12.70;99.90;;;;;;6245033;28;20061;-65
2022/07/17 01:39:57;;;;;;;9.23;4.10;;;12.60;99.90;;;;;;6244478;28;20041;-65
2022/07/17 01:42:59;;;;;;;6.25;2.60;;;12.60;99.90;;;;;;6245067;28;20050;-65
2022/07/17 01:46:01;;;;;;;8.85;2.50;;;12.50;99.90;;;;;;6245360;28;20065;-65
2022/07/17 01:49:03;;;;;;;6.82;2.47;;;12.50;99.90;;;;;;6229528;28;20049;-65
2022/07/17 01:52:06;;;;;;;6.78;2.30;;;12.50;99.90;;;;;;6245171;28;20061;-65
2022/07/17 01:55:10;;;;;;;5.45;2.25;;;12.50;99.90;;;;;;6226621;28;20042;-65
2022/07/17 01:58:13;;;;;;;8.10;7.32;;;12.50;99.90;;;;;;6249025;28;20304;-65
2022/07/17 02:01:15;;;;;;;6.35;2.38;;;12.50;99.90;;;;;;6246739;28;20404;-65
2022/07/17 02:04:17;;;;;;;6.68;3.08;;;12.40;99.90;;;;;;6250410;28;20060;-65
2022/07/17 02:07:20;;;;;;;5.60;2.80;;;12.40;99.90;;;;;;6250094;28;20048;-65
2022/07/17 02:10:23;;;;;;;11.30;10.35;;;12.40;99.90;;;;;;6248750;28;20056;-65
2022/07/17 02:13:25;;;;;;;5.88;2.20;;;12.40;99.90;;;;;;6247201;28;20056;-65
2022/07/17 02:16:27;;;;;;;5.07;2.85;;;12.30;99.90;;;;;;6249305;28;20048;-65
2022/07/17 02:19:29;;;;;;;5.25;2.03;;;12.30;99.90;;;;;;6249664;28;20065;-65
2022/07/17 02:22:32;;;;;;;5.43;2.85;;;12.20;99.90;;;;;;6234501;28;20105;-65
2022/07/17 02:25:34;;;;;;;5.82;2.63;;;12.10;99.90;;;;;;6225198;28;20042;-65
2022/07/17 02:28:36;;;;;;;6.97;3.15;;;12.00;99.90;;;;;;6225973;28;20057;-65
2022/07/17 02:31:38;;;;;;;5.53;2.38;;;12.00;99.90;;;;;;6249613;28;20491;-65
2022/07/17 02:34:40;;;;;;;7.65;2.40;;;12.00;99.90;;;;;;6249495;28;20191;-65
2022/07/17 02:37:45;;;;;;;9.20;3.17;;;12.00;99.90;;;;;;6247542;28;20047;-65
2022/07/17 02:40:47;;;;;;;9.52;3.38;;;12.00;99.90;;;;;;6249366;28;20100;-65
2022/07/17 02:43:49;;;;;;;8.02;2.95;;;12.10;99.90;;;;;;6247775;28;20505;-65
2022/07/17 02:46:51;;;;;;;7.03;2.80;;;12.10;99.90;;;;;;6248242;28;20407;-65
2022/07/17 02:49:53;;;;;;;5.38;3.30;;;12.10;99.90;;;;;;6248929;28;20065;-65
2022/07/17 02:52:56;;;;;;;9.35;6.85;;;12.10;99.90;;;;;;6248055;28;20052;-65
2022/07/17 02:55:58;;;;;;;8.80;3.00;;;12.10;99.90;;;;;;6249316;28;20045;-65
2022/07/17 02:59:00;;;;;;;15.13;13.93;;;12.10;99.90;;;;;;6234956;28;20046;-65
2022/07/17 03:02:02;;;;;;;8.75;3.08;;;12.10;99.90;;;;;;6224374;28;20042;-65
2022/07/17 03:05:04;;;;;;;8.07;5.47;;;12.10;99.90;;;;;;6224252;28;20049;-65
2022/07/17 03:08:07;;;;;;;7.05;3.08;;;12.10;99.90;;;;;;6224107;28;20083;-65
2022/07/17 03:11:09;;;;;;;8.35;3.25;;;12.20;99.90;;;;;;6239655;28;20406;-65
2022/07/17 03:14:11;;;;;;;9.68;3.83;;;12.20;99.90;;;;;;6244010;28;20418;-65
2022/07/17 03:17:13;;;;;;;9.15;3.63;;;12.30;99.90;;;;;;6247989;28;20470;-65
2022/07/17 03:20:15;;;;;;;9.48;3.25;;;12.30;99.90;;;;;;6222740;28;20052;-65
2022/07/17 03:23:18;;;;;;;9.85;3.55;;;12.20;99.90;;;;;;6223885;28;20053;-65
2022/07/17 03:26:20;;;;;;;5.65;4.53;;;12.20;99.90;;;;;;6227477;28;20048;-65
2022/07/17 03:29:22;;;;;;;7.25;3.50;;;12.10;99.90;;;;;;6247292;28;20056;-65
2022/07/17 03:32:24;;;;;;;7.53;3.63;;;12.10;99.90;;;;;;6246721;28;20430;-65
2022/07/17 03:35:26;;;;;;;5.70;3.05;;;12.10;99.90;;;;;;6248190;28;20057;-65
2022/07/17 03:38:29;;;;;;;9.13;3.20;;;12.20;99.90;;;;;;6248192;28;20053;-65
2022/07/17 03:41:31;;;;;;;8.57;3.22;;;12.30;99.90;;;;;;6246986;28;20060;-65
2022/07/17 03:44:33;;;;;;;8.32;3.75;;;12.30;99.90;;;;;;6245853;28;20046;-65
2022/07/17 03:47:35;;;;;;;8.32;3.60;;;12.20;99.90;;;;;;6246603;28;20053;-65
2022/07/17 03:50:37;;;;;;;8.50;4.35;;;12.10;99.90;;;;;;6246683;28;20061;-65
2022/07/17 03:53:40;;;;;;;7.93;3.40;;;12.00;99.90;;;;;;6230501;28;20053;-65
2022/07/17 03:56:42;;;;;;;16.38;14.73;;;12.10;99.90;;;;;;6223307;28;20048;-65
2022/07/17 03:59:44;;;;;;;10.50;3.50;;;12.00;99.90;;;;;;6230914;28;20045;-65
2022/07/17 04:02:46;;;;;;;12.02;4.10;;;12.00;99.90;;;;;;6246430;28;20060;-65
2022/07/17 04:05:48;;;;;;;6.93;3.72;;;12.10;99.90;;;;;;6246484;28;20483;-65
2022/07/17 04:08:51;;;;;;;10.32;3.90;;;12.00;99.90;;;;;;6247570;28;20045;-65
2022/07/17 04:11:53;;;;;;;8.27;5.93;;;12.10;99.90;;;;;;6247240;28;20422;-65
2022/07/17 04:14:55;;;;;;;6.63;3.83;;;12.00;99.90;;;;;;6247509;28;20053;-65
2022/07/17 04:17:57;;;;;;;8.27;3.58;;;12.00;99.90;;;;;;6243351;28;20045;-65
2022/07/17 04:21:03;;;;;;;9.93;3.47;;;12.10;99.90;;;;;;6246299;28;20049;-65
2022/07/17 04:24:07;;;;;;;10.27;3.92;;;12.10;99.90;;;;;;6242161;28;20487;-65
2022/07/17 04:27:09;;;;;;;8.98;4.10;;;12.20;99.90;;;;;;6222843;28;20053;-65
2022/07/17 04:30:11;;;;;;;12.63;4.20;;;12.20;99.90;;;;;;6221221;28;20060;-65
2022/07/17 04:33:13;;;;;;;8.52;3.88;;;12.30;99.90;;;;;;6221675;28;20050;-65
2022/07/17 04:36:15;;;;;;;6.47;3.33;;;12.30;99.90;;;;;;6222828;28;20038;-65
2022/07/17 04:39:18;;;;;;;7.65;3.35;;;12.30;99.90;;;;;;6222395;28;20054;-65
2022/07/17 04:42:20;;;;;;;7.57;3.22;;;12.40;99.90;;;;;;6222324;28;20088;-65
2022/07/17 04:45:22;;;;;;;10.45;3.72;;;12.50;99.90;;;;;;6222165;28;20054;-65
2022/07/17 04:48:24;;;;;;;6.90;3.30;;;12.60;99.90;;;;;;6221780;28;20049;-65
2022/07/17 04:51:26;;;;;;;9.27;3.85;;;12.60;99.90;;;;;;6221290;28;20492;-65
2022/07/17 04:54:29;;;;;;;7.10;3.25;;;12.70;99.90;;;;;;6221022;28;20056;-65
2022/07/17 04:57:31;;;;;;;6.95;3.00;;;12.80;99.90;;;;;;6222028;28;20049;-65
2022/07/17 05:00:33;;;;;;;4.10;2.67;;;12.90;99.90;;;;;;6254414;28;20050;-65
2022/07/17 05:03:37;;;;;;;4.07;2.20;;;13.10;99.90;;;;;;6230691;28;20046;-65
2022/07/17 05:06:39;;;;;;;7.88;2.80;;;13.20;99.90;;;;;;6246919;28;20052;-65
2022/07/17 05:09:42;;;;;;;8.27;2.90;;;13.50;99.90;;;;;;6246923;28;20045;-65
2022/07/17 05:12:44;;;;;;;7.43;2.35;;;13.70;99.90;;;;;;6245097;28;20050;-65
2022/07/17 05:15:46;;;;;;;6.63;2.88;;;13.70;99.90;;;;;;6245356;28;20045;-65
2022/07/17 05:18:48;;;;;;;5.07;2.63;;;13.70;99.90;;;;;;6245051;28;20045;-65
2022/07/17 05:21:51;;;;;;;6.28;2.58;;;13.70;99.90;;;;;;6245503;28;20049;-65
2022/07/17 05:24:54;;;;;;;6.13;2.45;;;13.60;99.90;;;;;;6245274;28;20049;-65
2022/07/17 05:27:56;;;;;;;5.53;2.08;;;13.70;99.90;;;;;;6243745;28;20042;-65
2022/07/17 05:30:58;;;;;;;8.40;2.60;;;13.70;99.90;;;;;;6232191;28;20046;-65
2022/07/17 05:34:00;;;;;;;2.75;1.70;;;13.80;99.90;;;;;;6241620;28;20534;-65
2022/07/17 05:37:02;;;;;;;4.70;2.15;;;14.00;99.90;;;;;;6226562;28;20069;-65
2022/07/17 05:40:06;;;;;;;6.88;2.40;;;14.40;99.90;;;;;;6241809;28;20061;-65
2022/07/17 05:43:08;;;;;;;3.53;1.70;;;14.80;99.90;;;;;;6247918;28;20049;-65
2022/07/17 05:46:10;;;;;;;6.63;2.58;;;15.00;99.90;;;;;;6249726;28;20430;-65
2022/07/17 05:49:12;;;;;;;2.45;1.40;;;15.20;99.90;;;;;;6239370;28;20042;-65
2022/07/17 05:52:14;;;;;;;3.72;1.58;;;15.50;99.90;;;;;;6226014;28;20054;-65
2022/07/17 05:55:18;;;;;;;6.88;2.90;;;16.00;99.90;;;;;;6226185;28;20058;-65
2022/07/17 05:58:20;;;;;;;3.67;1.55;;;16.30;99.90;;;;;;6249684;28;20046;-65
2022/07/17 06:01:22;;;;;;;2.67;1.38;;;16.30;99.90;;;;;;6250492;28;20060;-65
2022/07/17 06:04:24;;;;;;;2.55;0.93;;;16.50;99.90;;;;;;6228683;28;20518;-65
2022/07/17 06:07:26;;;;;;;7.55;2.47;;;16.70;99.90;;;;;;6225544;28;20064;-65
2022/07/17 06:10:29;;;;;;;2.70;1.20;;;17.10;99.90;;;;;;6233343;28;20513;-65
2022/07/17 06:13:31;;;;;;;1.95;1.20;;;17.40;99.90;;;;;;6250021;28;20080;-65
2022/07/17 06:16:33;;;;;;;2.85;1.40;;;17.80;99.90;;;;;;6250334;28;20046;-65
2022/07/17 06:19:35;;;;;;;2.83;1.15;;;17.70;99.90;;;;;;6239303;28;20061;-65
2022/07/17 06:22:37;;;;;;;2.13;1.15;;;17.90;99.90;;;;;;6225499;28;20050;-65
2022/07/17 06:25:40;;;;;;;2.70;1.20;;;18.00;99.90;;;;;;6241027;28;20052;-65
2022/07/17 06:28:42;;;;;;;6.65;1.55;;;18.30;99.90;;;;;;6249612;28;20057;-65
2022/07/17 06:31:44;;;;;;;2.03;1.20;;;18.60;99.90;;;;;;6248517;28;20422;-66
2022/07/17 06:34:46;;;;;;;2.15;1.08;;;18.80;99.90;;;;;;6249581;28;20061;-65
2022/07/17 06:37:48;;;;;;;2.88;1.30;;;19.20;99.90;;;;;;6249775;28;20046;-65
2022/07/17 06:40:51;;;;;;;6.25;1.83;;;19.50;99.90;;;;;;6246606;28;20034;-65
2022/07/17 06:43:53;;;;;;;1.70;1.10;;;19.50;99.90;;;;;;6248209;28;20392;-65
2022/07/17 06:46:55;;;;;;;3.08;1.70;;;19.50;99.90;;;;;;6249413;28;20131;-65
2022/07/17 06:49:57;;;;;;;2.65;1.48;;;19.90;99.90;;;;;;6248868;28;20049;-65
2022/07/17 06:52:59;;;;;;;2.55;1.33;;;20.10;99.90;;;;;;6228708;28;20045;-65
2022/07/17 06:56:02;;;;;;;2.42;2.13;;;20.30;99.90;;;;;;6224647;28;20045;-65
2022/07/17 06:59:06;;;;;;;3.70;3.33;;;20.60;99.90;;;;;;6223020;28;20085;-65
2022/07/17 07:02:08;;;;;;;5.68;2.80;;;20.80;99.90;;;;;;6239403;28;20056;-65
2022/07/17 07:05:10;;;;;;;4.25;3.78;;;20.70;99.90;;;;;;6260069;28;20075;-65
2022/07/17 07:08:12;;;;;;;5.90;4.10;;;20.60;99.90;;;;;;6248806;28;20057;-65
2022/07/17 07:11:15;;;;;;;3.20;2.88;;;20.50;99.90;;;;;;6248943;28;20042;-65
2022/07/17 07:14:17;;;;;;;5.97;3.90;;;20.30;99.90;;;;;;6248938;28;20054;-65
2022/07/17 07:17:20;;;;;;;8.80;6.18;;;20.20;99.90;;;;;;6247152;28;20060;-65
2022/07/17 07:20:22;;;;;;;7.93;3.42;;;20.20;99.90;;;;;;6248430;28;20395;-66
2022/07/17 07:23:24;;;;;;;5.70;2.50;;;19.90;99.90;;;;;;6236040;28;20395;-65
2022/07/17 07:26:28;;;;;;;6.97;3.13;;;19.50;99.90;;;;;;6223774;28;20050;-65
2022/07/17 07:29:30;;;;;;;4.70;3.25;;;19.40;99.90;;;;;;6245422;28;20107;-65
2022/07/17 07:32:32;;;;;;;3.25;2.20;;;19.40;99.90;;;;;;6247008;28;20479;-65
2022/07/17 07:35:34;;;;;;;2.60;2.40;;;19.60;99.90;;;;;;6248723;28;20046;-65
2022/07/17 07:38:36;;;;;;;3.90;2.90;;;19.90;99.90;;;;;;6245110;28;20053;-65
2022/07/17 07:41:39;;;;;;;4.60;4.15;;;20.30;99.90;;;;;;6246663;28;20053;-65
2022/07/17 07:44:41;;;;;;;4.45;4.05;;;20.60;99.90;;;;;;6237868;28;20050;-65
2022/07/17 07:47:43;;;;;;;7.55;7.05;;;20.80;99.90;;;;;;6222964;28;20058;-65
2022/07/17 07:50:45;;;;;;;10.40;9.80;;;20.90;99.90;;;;;;6236845;28;20403;-66
2022/07/17 07:53:47;;;;;;;10.73;10.10;;;20.80;99.90;;;;;;6245169;28;20060;-66
2022/07/17 07:56:51;;;;;;;10.70;9.77;;;20.70;99.90;;;;;;6247474;28;20049;-64
2022/07/17 07:59:53;;;;;;;13.82;13.02;;;20.60;99.90;;;;;;6247758;28;20060;-65
2022/07/17 08:02:54;;;;;;;10.45;9.57;;;20.10;99.90;;;;;;6247399;28;20053;-65
2022/07/17 08:05:56;;;;;;;10.15;8.23;;;19.40;99.90;;;;;;6245192;28;20414;-65
2022/07/17 08:08:58;;;;;;;2.42;2.15;;;19.10;99.90;;;;;;6246182;28;20482;-65
2022/07/17 08:12:02;;;;;;;4.75;2.88;;;19.10;99.90;;;;;;6246302;28;20068;-65
2022/07/17 08:15:04;;;;;;;5.65;2.83;;;19.30;99.90;;;;;;6247143;28;20430;-65
2022/07/17 08:18:06;;;;;;;9.30;3.30;;;19.60;99.90;;;;;;6246921;28;20072;-64
2022/07/17 08:21:08;;;;;;;2.95;2.70;;;19.60;99.90;;;;;;6227250;28;20046;-64
2022/07/17 08:24:10;;;;;;;4.15;2.78;;;19.70;99.90;;;;;;6254491;28;20502;-64
2022/07/17 08:27:13;;;;;;;6.20;5.57;;;20.00;99.90;;;;;;6222445;28;20049;-64
2022/07/17 08:30:16;;;;;;;9.35;3.67;;;20.00;99.90;;;;;;6222709;28;20091;-64
2022/07/17 08:33:18;;;;;;;5.40;3.17;;;20.20;99.90;;;;;;6222798;28;20057;-64
2022/07/17 08:36:20;;;;;;;6.18;3.47;;;20.40;99.90;;;;;;6234062;28;20046;-64
2022/07/17 08:39:22;;;;;;;5.47;3.42;;;20.70;99.90;;;;;;6222618;28;20046;-64
2022/07/17 08:42:31;;;;;;;5.95;3.25;;;20.70;99.90;;;;;;6222692;28;20526;-65
2022/07/17 08:45:33;;;;;;;3.53;3.00;;;20.80;99.90;;;;;;6222911;28;20136;-64
2022/07/17 08:48:38;;;;;;;10.48;5.93;;;21.00;99.90;;;;;;6254032;28;20053;-64
2022/07/17 08:51:40;;;;;;;13.10;12.00;;;21.40;99.90;;;;;;6222099;28;20038;-64
2022/07/17 08:54:43;;;;;;;8.68;8.07;;;21.60;99.90;;;;;;6222584;28;20053;-65
2022/07/17 08:57:46;;;;;;;8.05;7.50;;;21.10;99.90;;;;;;6232840;28;20045;-64
2022/07/17 09:00:49;;;;;;;12.57;11.68;;;21.00;99.90;;;;;;6246988;28;20041;-65
2022/07/17 09:03:55;;;;;;;8.95;8.20;;;21.10;99.90;;;;;;6247355;28;20175;-64
2022/07/17 09:07:02;;;;;;;9.57;8.98;;;21.10;99.90;;;;;;6251422;28;20362;-65
2022/07/17 09:10:05;;;;;;;11.88;11.15;;;21.00;99.90;;;;;;6250157;28;20103;-64
2022/07/17 09:13:20;;;;;;;11.47;10.87;;;21.20;99.90;;;;;;6247793;28;20065;-64
2022/07/17 09:16:22;;;;;;;11.55;10.82;;;21.40;99.90;;;;;;6226994;28;20057;-64
2022/07/17 09:19:28;;;;;;;9.15;8.57;;;21.30;99.90;;;;;;6240354;28;20041;-64
2022/07/17 09:22:30;;;;;;;10.50;9.68;;;21.40;99.90;;;;;;6243806;28;20061;-64
2022/07/17 09:25:33;;;;;;;8.82;8.25;;;21.50;99.90;;;;;;6243561;28;20049;-64
2022/07/17 09:28:45;;;;;;;10.02;9.05;;;21.60;99.90;;;;;;6251214;28;20095;-64
2022/07/17 09:31:53;;;;;;;11.00;10.30;;;21.70;99.90;;;;;;6282869;28;20091;-64
2022/07/17 09:34:57;;;;;;;10.75;9.85;;;21.90;99.90;;;;;;6251121;28;20057;-64
2022/07/17 09:37:58;;;;;;;10.35;9.40;;;21.80;99.90;;;;;;6243486;28;20049;-65
2022/07/17 09:41:12;;;;;;;10.40;9.70;;;21.40;99.90;;;;;;6250766;28;20072;-65
2022/07/17 09:44:15;;;;;;;8.38;7.78;;;20.40;99.90;;;;;;6251053;28;20103;-64
2022/07/17 09:47:19;;;;;;;6.85;5.22;;;20.50;99.90;;;;;;6250600;28;20469;-64
2022/07/17 09:50:21;;;;;;;11.95;10.98;;;20.60;99.90;;;;;;6246490;28;20046;-64
2022/07/17 09:53:23;;;;;;;9.52;8.93;;;20.80;99.90;;;;;;6264279;28;20053;-65
2022/07/17 09:56:28;;;;;;;11.77;11.00;;;20.80;99.90;;;;;;6249369;28;20049;-65
2022/07/17 09:59:37;;;;;;;12.05;11.43;;;20.90;99.90;;;;;;6250277;28;20045;-65
2022/07/17 10:02:41;;;;;;;12.20;11.35;;;20.90;99.90;;;;;;6250402;28;20046;-65
2022/07/17 10:05:43;;;;;;;;;;;20.90;99.90;;;;;;6226443;28;20416;-65
2022/07/17 10:08:45;;;;;;;14.73;13.93;;;21.00;99.90;;;;;;6226558;28;19928;-65
2022/07/17 10:11:47;;;;;;;14.02;13.23;;;21.30;99.90;;;;;;6246370;28;20068;-65
2022/07/17 10:14:51;;;;;;;13.80;12.70;;;21.70;99.90;;;;;;6225389;28;20050;-65
2022/07/17 10:18:05;;;;;;;8.40;7.90;;;22.00;99.90;;;;;;6237977;28;20045;-65
2022/07/17 10:21:11;;;;;;;8.82;7.60;;;22.20;99.90;;;;;;6250006;28;20045;-65
2022/07/17 10:24:13;;;;;;;11.57;10.57;;;22.20;99.70;;;;;;6249574;28;20461;-65
2022/07/17 10:27:23;;;;;;;10.45;9.63;;;22.00;99.90;;;;;;6247787;28;20176;-65
2022/07/17 10:30:28;;;;;;;9.25;8.55;;;22.00;99.90;;;;;;6248521;28;20045;-65
2022/07/17 10:33:30;;;;;;;13.18;12.25;;;21.90;99.80;;;;;;6248965;28;20060;-65
2022/07/17 10:36:36;;;;;;;10.65;10.05;;;22.00;99.90;;;;;;6249423;28;20049;-65
2022/07/17 10:39:38;;;;;;;11.65;10.95;;;22.10;99.80;;;;;;6249644;28;20049;-65
2022/07/17 10:42:46;;;;;;;13.27;12.50;;;22.10;99.70;;;;;;6247994;28;20510;-65
2022/07/17 10:45:49;;;;;;;10.82;10.18;;;22.10;99.70;;;;;;6249149;28;20116;-65
2022/07/17 10:48:51;;;;;;;9.48;8.60;;;22.40;99.30;;;;;;6247762;28;20050;-65
2022/07/17 10:51:53;;;;;;;11.07;10.48;;;22.60;98.50;;;;;;6224511;28;20057;-66
2022/07/17 10:54:55;;;;;;;12.13;11.43;;;22.70;98.80;;;;;;6224493;28;20053;-65
2022/07/17 10:57:58;;;;;;;11.82;11.13;;;22.90;98.50;;;;;;6266004;28;20050;-66
2022/07/17 11:01:04;;;;;;;9.93;9.43;;;23.00;98.40;;;;;;6247966;28;20057;-65
2022/07/17 11:04:07;;;;;;;9.07;8.57;;;23.10;98.20;;;;;;6248218;28;20054;-65
2022/07/17 11:07:09;;;;;;;9.65;9.05;;;23.10;98.30;;;;;;6249135;28;20064;-65
2022/07/17 11:10:14;;;;;;;9.13;8.63;;;23.10;98.00;;;;;;6248645;28;20068;-65
2022/07/17 11:13:17;;;;;;;9.18;8.57;;;23.10;98.00;;;;;;6248454;28;20045;-65
2022/07/17 11:16:28;;;;;;;8.35;7.93;;;23.20;97.90;;;;;;6224528;28;20054;-65
2022/07/17 11:19:32;;;;;;;8.35;7.85;;;23.20;97.80;;;;;;6224210;28;20078;-65
2022/07/17 11:22:34;;;;;;;6.97;6.28;;;23.30;97.70;;;;;;6250467;28;20076;-65
2022/07/17 11:25:36;;;;;;;12.70;12.00;;;23.20;97.30;;;;;;6234317;28;20050;-65
2022/07/17 11:28:40;;;;;;;8.68;8.07;;;23.20;97.60;;;;;;6222542;28;20050;-65
2022/07/17 11:31:44;;;;;;;11.23;10.63;;;23.20;97.30;;;;;;6222363;28;20045;-65
2022/07/17 11:34:47;;;;;;;11.68;11.07;;;23.10;97.70;;;;;;6226876;28;20048;-65
2022/07/17 11:37:50;;;;;;;8.17;7.53;;;23.10;97.70;;;;;;6222586;28;20056;-65
2022/07/17 11:40:52;;;;;;;7.07;5.28;;;23.20;97.30;;;;;;6238977;28;20487;-66
2022/07/17 11:43:54;;;;;;;14.38;13.68;;;22.70;97.00;;;;;;6223076;28;20057;-64
2022/07/17 11:46:57;;;;;;;7.68;6.97;;;22.80;97.90;;;;;;6223392;28;20056;-64
2022/07/17 11:50:10;;;;;;;10.27;9.63;;;22.60;97.30;;;;;;6222878;28;20046;-64
2022/07/17 11:53:12;;;;;;;8.35;7.55;;;22.70;98.00;;;;;;6222239;28;20133;-64
2022/07/17 11:56:21;;;;;;;11.98;11.23;;;22.70;97.00;;;;;;6223014;28;20483;-64
2022/07/17 11:59:28;;;;;;;8.18;7.63;;;22.70;97.90;;;;;;6249355;28;20049;-65
2022/07/17 12:02:32;;;;;;;10.68;9.77;;;22.70;98.00;;;;;;6246185;28;20042;-65
2022/07/17 12:05:35;;;;;;;11.85;10.73;;;22.60;97.50;;;;;;6245689;28;20057;-65
2022/07/17 12:08:38;;;;;;;10.48;9.70;;;22.40;98.00;;;;;;6246690;28;20049;-65
2022/07/17 12:11:47;;;;;;;11.02;10.32;;;22.50;98.50;;;;;;6246041;28;20050;-65
2022/07/17 12:14:51;;;;;;;12.88;12.07;;;22.70;98.20;;;;;;6247493;28;20132;-65
2022/07/17 12:17:55;;;;;;;10.07;9.57;;;22.80;98.20;;;;;;6244470;28;20359;-65
2022/07/17 12:20:59;;;;;;;10.30;9.40;;;22.80;98.10;;;;;;6232410;28;20045;-65
2022/07/17 12:24:04;;;;;;;13.02;12.32;;;23.00;99.00;;;;;;6247243;28;20060;-64
2022/07/17 12:27:08;;;;;;;12.52;11.68;;;23.00;98.20;;;;;;6247095;28;20041;-64
2022/07/17 12:30:11;;;;;;;10.23;9.52;;;23.10;97.90;;;;;;6246913;28;20052;-64
2022/07/17 12:33:14;;;;;;;11.57;10.97;;;23.10;97.70;;;;;;6276886;28;20078;-64
2022/07/17 12:36:16;;;;;;;;;;;23.10;97.90;;;;;;6247479;28;20049;-65
2022/07/17 12:39:18;;;;;;;12.57;11.93;;;23.20;97.90;;;;;;6242880;28;20393;-65
2022/07/17 12:42:20;;;;;;;9.75;9.25;;;23.30;97.80;;;;;;6237765;28;20064;-65
2022/07/17 12:45:22;;;;;;;9.43;8.82;;;23.30;97.70;;;;;;6224219;28;20049;-65
2022/07/17 12:48:25;;;;;;;10.20;9.50;;;23.40;97.60;;;;;;6222470;28;20052;-64
2022/07/17 12:51:27;;;;;;;8.70;8.10;;;23.50;97.60;;;;;;6222262;28;20284;-65
2022/07/17 12:54:31;;;;;;;9.68;8.85;;;23.60;97.30;;;;;;6238980;28;20053;-65
2022/07/17 12:57:33;;;;;;;10.35;9.65;;;23.60;97.50;;;;;;6224841;28;20050;-65
2022/07/17 13:00:35;;;;;;;12.02;11.10;;;23.70;97.30;;;;;;6221161;28;20064;-65
2022/07/17 13:03:39;;;;;;;10.52;9.50;;;23.70;97.30;;;;;;6221042;28;20045;-65
2022/07/17 13:06:41;;;;;;;9.10;8.35;;;23.80;97.10;;;;;;6253833;28;20395;-65
2022/07/17 13:09:43;;;;;;;10.75;9.88;;;23.80;97.40;;;;;;6222002;28;20052;-65
2022/07/17 13:12:45;;;;;;;7.80;7.22;;;23.80;96.90;;;;;;6222308;28;20046;-65
2022/07/17 13:15:46;;;;;;;8.00;7.50;;;23.80;97.00;;;;;;6236492;28;20056;-65
2022/07/17 13:18:50;;;;;;;8.30;7.70;;;23.90;97.10;;;;;;6221144;28;20510;-65
2022/07/17 13:21:52;;;;;;;8.13;7.63;;;23.90;97.10;;;;;;6221917;28;20046;-65
2022/07/17 13:24:54;;;;;;;5.60;5.10;;;23.80;97.10;;;;;;6237312;28;20054;-64
2022/07/17 13:27:56;;;;;;;5.97;4.25;;;23.70;95.90;;;;;;6221678;28;20054;-64
2022/07/17 13:30:58;;;;;;;6.85;6.25;;;23.50;96.10;;;;;;6237382;28;20065;-64
2022/07/17 13:34:01;;;;;;;7.57;5.95;;;23.40;96.70;;;;;;6221510;28;20056;-64
2022/07/17 13:37:03;;;;;;;7.03;6.38;;;23.50;96.60;;;;;;6221926;28;20056;-65
2022/07/17 13:40:07;;;;;;;10.10;9.40;;;23.50;96.70;;;;;;6222154;28;20046;-65
2022/07/17 13:43:09;;;;;;;6.57;6.07;;;23.50;97.10;;;;;;6221673;28;20123;-64
2022/07/17 13:46:11;;;;;;;10.32;9.73;;;23.60;96.50;;;;;;6221521;28;20046;-64
2022/07/17 13:49:14;;;;;;;7.97;7.43;;;23.60;97.00;;;;;;6246304;28;20082;-65
2022/07/17 13:52:16;;;;;;;6.32;5.93;;;23.70;97.20;;;;;;6249016;28;20054;-65
2022/07/17 13:55:18;;;;;;;8.60;8.10;;;23.80;97.30;;;;;;6250297;28;20404;-65
2022/07/17 13:58:20;;;;;;;7.80;7.30;;;23.80;97.00;;;;;;6250534;28;20055;-65
2022/07/17 14:01:22;;;;;;;6.45;4.43;;;23.80;97.30;;;;;;6236227;28;21630;-64
2022/07/17 14:04:26;;;;;;;5.88;5.47;;;23.80;96.10;;;;;;6225958;28;20053;-64
2022/07/17 14:07:28;;;;;;;8.02;6.50;;;23.90;96.50;;;;;;6225715;28;20046;-64
2022/07/17 14:10:30;;;;;;;10.77;10.18;;;23.90;96.50;;;;;;6224229;28;20053;-65
2022/07/17 14:13:32;;;;;;;9.75;9.15;;;24.00;96.90;;;;;;6225711;28;20053;-64
2022/07/17 14:16:34;;;;;;;8.98;8.27;;;24.00;96.90;;;;;;6244111;28;20049;-65
2022/07/17 14:19:37;;;;;;;5.03;4.63;;;24.00;96.70;;;;;;6225392;28;20057;-64
2022/07/17 14:22:39;;;;;;;5.70;5.25;;;23.90;95.90;;;;;;6225235;28;20056;-65
2022/07/17 14:25:41;;;;;;;5.60;3.90;;;24.00;96.70;;;;;;6225399;28;20045;-65
2022/07/17 14:28:43;;;;;;;6.03;5.53;;;24.00;95.50;;;;;;6240607;28;20056;-65
2022/07/17 14:31:45;;;;;;;5.20;4.68;;;24.00;96.40;;;;;;6225071;28;20046;-65
2022/07/17 14:34:49;;;;;;;5.38;4.97;;;24.00;96.20;;;;;;6225033;28;20146;-64
2022/07/17 14:37:51;;;;;;;7.32;5.20;;;24.10;96.10;;;;;;6225232;28;20046;-65
2022/07/17 14:40:53;;;;;;;6.72;5.97;;;24.20;95.70;;;;;;6225106;28;20050;-65
2022/07/17 14:43:55;;;;;;;6.55;4.60;;;24.30;95.60;;;;;;6225011;28;20056;-65
2022/07/17 14:46:57;;;;;;;7.63;5.50;;;24.40;95.20;;;;;;6224149;28;20072;-64
2022/07/17 14:50:00;;;;;;;4.65;3.95;;;24.30;95.40;;;;;;6224460;28;20057;-64
2022/07/17 14:53:02;;;;;;;4.97;3.80;;;24.30;94.90;;;;;;6240162;28;20496;-64
2022/07/17 14:56:04;;;;;;;6.95;3.58;;;24.30;94.70;;;;;;6223625;28;20057;-64
2022/07/17 14:59:06;;;;;;;4.95;4.28;;;24.10;94.10;;;;;;6224310;28;20045;-63
2022/07/17 15:02:08;;;;;;;4.32;4.03;;;24.10;95.30;;;;;;6224164;28;20048;-64
2022/07/17 15:05:11;;;;;;;4.80;4.40;;;24.00;96.20;;;;;;6224501;28;20061;-64
2022/07/17 15:08:13;;;;;;;6.10;4.72;;;24.00;96.70;;;;;;6239313;28;20058;-64
2022/07/17 15:11:15;;;;;;;5.82;3.80;;;24.00;95.90;;;;;;6224410;28;20046;-65
2022/07/17 15:14:17;;;;;;;5.43;4.28;;;24.00;94.90;;;;;;6258575;28;20398;-64
2022/07/17 15:17:19;;;;;;;7.43;3.88;;;24.00;95.90;;;;;;6248711;28;20053;-64
2022/07/17 15:20:23;;;;;;;7.10;6.35;;;23.90;95.10;;;;;;6229631;28;20065;-65
2022/07/17 15:23:24;;;;;;;;;;;23.90;95.90;;;;;;6224476;28;20504;-64
2022/07/17 15:26:26;;;;;;;5.70;4.20;;;24.00;95.90;;;;;;6223686;28;19921;-64
2022/07/17 15:29:28;;;;;;;6.15;3.80;;;24.00;95.70;;;;;;6233392;28;20048;-64
2022/07/17 15:32:32;;;;;;;5.30;4.80;;;24.00;94.80;;;;;;6246226;28;20064;-65
2022/07/17 15:35:36;;;;;;;3.90;3.60;;;24.00;96.00;;;;;;6247087;28;20057;-64
2022/07/17 15:38:38;;;;;;;4.70;4.30;;;24.10;96.40;;;;;;6248084;28;20061;-64
2022/07/17 15:41:40;;;;;;;5.90;3.72;;;24.10;96.60;;;;;;6248130;28;20510;-64
2022/07/17 15:44:42;;;;;;;4.43;3.50;;;24.20;95.10;;;;;;6230519;28;20494;-65
2022/07/17 15:47:43;;;;;;;9.38;7.00;;;24.20;94.80;;;;;;6247477;28;20596;-65